Terminal Aerodrome Forecast
Issued by NWS

Home | Current Version | Previous Version | Text Only | Print | Product List | Glossary On
Versions: 1 2 3 4 5 6 7 8 9 10 11 12 13 14 15 16 17 18 19 20 21 22 23
000
FTUS44 KLIX 010500
TAFHDC
TAF
KHDC 010520Z 0106/0206 11005KT P6SM SCT035 BKN100
     FM011100 13005KT P6SM OVC015
     FM011400 15006KT 3SM -SHRA OVC010
     FM012300 23007KT 3SM -SHRA OVC015
     FM020300 24010KT 3SM -SHRA OVC008
     FM020500 31012KT 3SM -SHRA OVC008=

USA.gov is the U.S. government's official web portal to all federal, state and local government web resources and services.